Archiv

Tageswerte

Alle gespeicherten Messwerte deiner Wetterstation.

Ausgewählter Tag12.01.2024
← Vortag Nächster Tag → Heute
Messpunkte288
Max Temperatur-0,9 °C
Min Temperatur-3,6 °C
Ø Temperatur-2,0 °C
Regen0,0 mm
Stärkste Böe15,0 km/h

Messwerte vom 12.01.2024

288 gespeicherte Messwerte

Diagramm anzeigen
ZeitTemperaturFeuchteDruckWindBöeRichtungRegenUVHelligkeit
23:59-0,9 °C92 %1.015,9 hPa3,5 km/h7,9 km/h282°0,0 mm
23:54-0,9 °C92 %1.015,9 hPa3,5 km/h7,9 km/h309°0,0 mm
23:49-0,9 °C92 %1.015,9 hPa4,1 km/h9,3 km/h279°0,0 mm
23:44-0,9 °C92 %1.015,9 hPa3,5 km/h9,7 km/h280°0,0 mm
23:39-0,9 °C93 %1.015,9 hPa4,6 km/h8,5 km/h288°0,0 mm
23:34-0,9 °C93 %1.015,9 hPa3,8 km/h10,8 km/h276°0,0 mm
23:29-0,9 °C93 %1.015,9 hPa3,7 km/h6,8 km/h293°0,0 mm
23:24-0,9 °C93 %1.015,9 hPa2,3 km/h9,7 km/h289°0,0 mm
23:19-0,9 °C93 %1.015,9 hPa1,6 km/h5,6 km/h310°0,0 mm
23:14-0,9 °C93 %1.015,9 hPa2,7 km/h7,9 km/h326°0,0 mm
23:09-0,9 °C93 %1.015,9 hPa4,3 km/h7,9 km/h305°0,0 mm
23:04-0,9 °C93 %1.015,9 hPa3,5 km/h8,5 km/h238°0,0 mm
22:59-0,9 °C93 %1.015,9 hPa4,6 km/h9,7 km/h291°0,0 mm
22:54-0,9 °C93 %1.015,9 hPa5,3 km/h11,1 km/h282°0,0 mm
22:49-0,9 °C93 %1.015,9 hPa3,5 km/h8,9 km/h272°0,0 mm
22:44-1,0 °C93 %1.015,9 hPa5,4 km/h11,1 km/h280°0,0 mm
22:39-1,0 °C94 %1.015,9 hPa3,7 km/h6,8 km/h287°0,0 mm
22:34-1,0 °C94 %1.015,9 hPa3,7 km/h9,7 km/h300°0,0 mm
22:29-1,0 °C94 %1.015,9 hPa2,6 km/h8,5 km/h281°0,0 mm
22:24-1,0 °C93 %1.015,9 hPa3,5 km/h8,9 km/h298°0,0 mm
22:19-1,0 °C93 %1.015,9 hPa3,5 km/h11,4 km/h296°0,0 mm
22:14-1,0 °C93 %1.016,9 hPa3,6 km/h8,9 km/h303°0,0 mm
22:09-1,0 °C93 %1.016,9 hPa5,5 km/h9,7 km/h282°0,0 mm
22:04-1,0 °C94 %1.016,9 hPa4,8 km/h10,8 km/h278°0,0 mm
21:59-1,1 °C94 %1.016,9 hPa4,6 km/h9,3 km/h279°0,0 mm
21:54-1,1 °C94 %1.016,9 hPa3,7 km/h9,7 km/h290°0,0 mm
21:49-1,1 °C94 %1.016,9 hPa4,7 km/h9,3 km/h283°0,0 mm
21:44-1,1 °C94 %1.015,9 hPa4,1 km/h13,2 km/h286°0,0 mm
21:39-1,1 °C94 %1.015,9 hPa3,1 km/h7,4 km/h300°0,0 mm
21:34-1,1 °C94 %1.015,9 hPa3,3 km/h8,5 km/h277°0,0 mm
21:29-1,1 °C95 %1.016,9 hPa5,2 km/h9,7 km/h280°0,0 mm
21:24-1,1 °C95 %1.016,9 hPa5,2 km/h11,1 km/h286°0,0 mm
21:19-1,1 °C95 %1.016,9 hPa3,4 km/h10,8 km/h296°0,0 mm
21:14-1,1 °C95 %1.016,9 hPa3,3 km/h9,3 km/h275°0,0 mm
21:09-1,1 °C95 %1.016,9 hPa3,0 km/h8,9 km/h269°0,0 mm
21:04-1,1 °C95 %1.016,9 hPa4,1 km/h8,5 km/h265°0,0 mm
20:59-1,1 °C95 %1.016,9 hPa4,6 km/h9,7 km/h272°0,0 mm
20:54-1,2 °C95 %1.016,9 hPa5,9 km/h15,0 km/h283°0,0 mm
20:49-1,2 °C95 %1.016,9 hPa3,6 km/h6,4 km/h288°0,0 mm
20:44-1,2 °C95 %1.016,9 hPa3,5 km/h11,1 km/h246°0,0 mm
20:39-1,2 °C95 %1.016,9 hPa4,0 km/h11,1 km/h303°0,0 mm
20:34-1,2 °C95 %1.016,9 hPa3,6 km/h8,5 km/h259°0,0 mm
20:29-1,2 °C95 %1.016,9 hPa5,4 km/h10,8 km/h274°0,0 mm
20:24-1,2 °C95 %1.016,9 hPa4,4 km/h9,3 km/h258°0,0 mm
20:19-1,2 °C95 %1.016,9 hPa4,0 km/h9,7 km/h284°0,0 mm
20:14-1,2 °C95 %1.016,9 hPa4,7 km/h12,2 km/h273°0,0 mm
20:09-1,2 °C95 %1.016,9 hPa2,3 km/h4,7 km/h291°0,0 mm
20:04-1,2 °C95 %1.016,9 hPa4,6 km/h13,7 km/h274°0,0 mm
19:59-1,2 °C94 %1.016,9 hPa4,0 km/h10,3 km/h281°0,0 mm
19:54-1,2 °C94 %1.016,9 hPa4,7 km/h9,3 km/h279°0,0 mm
19:49-1,1 °C94 %1.016,9 hPa5,0 km/h11,4 km/h268°0,0 mm
19:44-1,2 °C94 %1.016,9 hPa2,8 km/h5,6 km/h284°0,0 mm
19:39-1,2 °C94 %1.016,9 hPa3,8 km/h8,5 km/h280°0,0 mm
19:34-1,2 °C94 %1.016,9 hPa4,6 km/h10,8 km/h265°0,0 mm
19:29-1,2 °C94 %1.016,9 hPa3,2 km/h8,5 km/h304°0,0 mm
19:24-1,2 °C94 %1.016,9 hPa3,5 km/h8,2 km/h283°0,0 mm
19:19-1,2 °C94 %1.016,9 hPa4,3 km/h10,3 km/h297°0,0 mm
19:14-1,2 °C94 %1.016,9 hPa3,5 km/h10,3 km/h304°0,0 mm
19:09-1,2 °C94 %1.016,9 hPa4,7 km/h9,7 km/h307°0,0 mm
19:04-1,2 °C94 %1.016,9 hPa3,7 km/h8,9 km/h301°0,0 mm
18:59-1,2 °C94 %1.016,9 hPa3,6 km/h7,9 km/h283°0,0 mm
18:54-1,2 °C93 %1.016,9 hPa4,2 km/h8,5 km/h252°0,0 mm
18:49-1,2 °C93 %1.016,9 hPa4,3 km/h11,4 km/h256°0,0 mm
18:44-1,2 °C93 %1.018,0 hPa3,3 km/h6,4 km/h261°0,0 mm
18:39-1,2 °C93 %1.018,0 hPa3,3 km/h7,4 km/h266°0,0 mm
18:34-1,3 °C93 %1.018,0 hPa3,3 km/h8,9 km/h266°0,0 mm
18:29-1,3 °C93 %1.018,0 hPa5,0 km/h10,3 km/h313°0,0 mm
18:24-1,3 °C94 %1.018,0 hPa3,8 km/h8,9 km/h297°0,0 mm
18:19-1,3 °C94 %1.018,0 hPa4,1 km/h8,2 km/h286°0,0 mm
18:14-1,4 °C95 %1.018,0 hPa3,7 km/h12,2 km/h282°0,0 mm
18:09-1,4 °C95 %1.018,0 hPa2,3 km/h7,9 km/h297°0,0 mm
18:04-1,4 °C95 %1.018,0 hPa4,5 km/h8,5 km/h299°0,0 mm
17:59-1,4 °C95 %1.018,0 hPa3,7 km/h8,9 km/h270°0,0 mm
17:54-1,4 °C95 %1.018,0 hPa3,4 km/h8,9 km/h287°0,0 mm
17:49-1,4 °C95 %1.018,0 hPa3,1 km/h7,9 km/h287°0,0 mm
17:44-1,4 °C95 %1.018,0 hPa3,3 km/h7,9 km/h277°0,0 mm
17:39-1,4 °C95 %1.018,0 hPa2,7 km/h6,4 km/h291°0,0 mm
17:34-1,5 °C95 %1.018,0 hPa4,0 km/h8,2 km/h262°0,0 mm
17:29-1,5 °C95 %1.018,0 hPa2,4 km/h5,3 km/h277°0,0 mm
17:24-1,5 °C95 %1.018,0 hPa2,9 km/h9,3 km/h293°0,0 mm
17:19-1,5 °C94 %1.018,0 hPa4,0 km/h7,9 km/h272°0,0 mm
17:14-1,5 °C94 %1.018,0 hPa4,6 km/h10,3 km/h296°0,0 mm
17:09-1,5 °C94 %1.018,0 hPa5,0 km/h9,3 km/h296°0,0 mm
17:04-1,5 °C94 %1.018,0 hPa4,2 km/h9,3 km/h298°0,0 mm
16:59-1,5 °C94 %1.018,0 hPa4,1 km/h8,5 km/h287°0,0 mm
16:54-1,5 °C94 %1.018,0 hPa5,8 km/h9,7 km/h275°0,0 mm
16:49-1,4 °C94 %1.018,0 hPa3,9 km/h8,9 km/h271°0,0 mm
16:44-1,4 °C94 %1.018,0 hPa3,1 km/h8,5 km/h283°0,0 mm
16:39-1,4 °C94 %1.018,0 hPa6,1 km/h15,0 km/h295°0,0 mm
16:34-1,4 °C94 %1.018,0 hPa4,9 km/h10,3 km/h293°0,0 mm
16:29-1,4 °C94 %1.018,0 hPa4,8 km/h11,1 km/h294°0,0 mm
16:24-1,4 °C94 %1.018,0 hPa4,0 km/h7,9 km/h273°0,0 mm
16:19-1,5 °C94 %1.018,0 hPa3,9 km/h8,9 km/h279°0,0 mm
16:14-1,5 °C93 %1.018,0 hPa3,9 km/h10,8 km/h280°0,0 mm
16:09-1,5 °C93 %1.018,0 hPa2,9 km/h10,8 km/h310°0,0 mm
16:04-1,5 °C93 %1.018,0 hPa3,7 km/h8,9 km/h279°0,0 mm
15:59-1,5 °C93 %1.018,0 hPa4,3 km/h9,3 km/h300°0,0 mm
15:54-1,5 °C93 %1.018,0 hPa4,7 km/h10,0 km/h325°0,0 mm
15:49-1,5 °C93 %1.018,0 hPa4,3 km/h7,4 km/h292°0,0 mm
15:44-1,5 °C93 %1.018,0 hPa2,8 km/h5,6 km/h296°0,0 mm
15:39-1,5 °C93 %1.018,0 hPa3,9 km/h8,9 km/h300°0,0 mm
15:34-1,5 °C93 %1.018,0 hPa3,9 km/h8,9 km/h285°0,0 mm
15:29-1,5 °C93 %1.018,0 hPa2,4 km/h7,9 km/h286°0,0 mm
15:24-1,5 °C93 %1.018,0 hPa3,8 km/h8,2 km/h286°0,0 mm
15:19-1,5 °C93 %1.018,0 hPa2,7 km/h6,8 km/h302°0,0 mm
15:14-1,4 °C93 %1.018,0 hPa3,8 km/h12,6 km/h282°0,0 mm
15:09-1,4 °C93 %1.018,0 hPa3,5 km/h8,5 km/h306°0,0 mm
15:04-1,4 °C93 %1.018,0 hPa3,1 km/h8,9 km/h298°0,0 mm
14:59-1,4 °C93 %1.018,0 hPa3,1 km/h9,7 km/h290°0,0 mm
14:54-1,4 °C93 %1.018,0 hPa4,9 km/h10,3 km/h296°0,0 mm
14:49-1,4 °C93 %1.018,0 hPa4,1 km/h10,8 km/h282°0,0 mm
14:44-1,4 °C93 %1.018,0 hPa2,3 km/h3,9 km/h295°0,0 mm
14:39-1,4 °C92 %1.018,0 hPa2,6 km/h8,5 km/h294°0,0 mm
14:34-1,4 °C92 %1.018,0 hPa2,5 km/h5,3 km/h275°0,0 mm
14:29-1,5 °C92 %1.018,0 hPa2,6 km/h6,4 km/h282°0,0 mm
14:24-1,5 °C92 %1.018,0 hPa2,1 km/h8,5 km/h267°0,0 mm
14:19-1,5 °C93 %1.018,0 hPa4,5 km/h9,3 km/h286°0,0 mm
14:14-1,5 °C93 %1.019,0 hPa3,9 km/h9,7 km/h304°0,0 mm
14:09-1,5 °C93 %1.019,0 hPa2,1 km/h6,8 km/h312°0,0 mm
14:04-1,5 °C93 %1.019,0 hPa2,1 km/h5,3 km/h293°0,0 mm
13:59-1,5 °C93 %1.018,0 hPa2,7 km/h8,5 km/h282°0,0 mm
13:54-1,5 °C93 %1.018,0 hPa2,7 km/h6,4 km/h294°0,0 mm
13:49-1,5 °C93 %1.018,0 hPa1,9 km/h5,3 km/h303°0,0 mm
13:44-1,5 °C93 %1.019,0 hPa3,1 km/h6,8 km/h282°0,0 mm
13:39-1,6 °C93 %1.019,0 hPa2,3 km/h7,9 km/h330°0,0 mm
13:34-1,6 °C93 %1.019,0 hPa1,9 km/h3,9 km/h307°0,0 mm
13:29-1,6 °C93 %1.019,0 hPa2,5 km/h7,9 km/h277°0,0 mm
13:24-1,7 °C93 %1.019,0 hPa3,0 km/h9,7 km/h286°0,0 mm
13:19-1,7 °C93 %1.019,0 hPa3,8 km/h10,3 km/h318°0,0 mm
13:14-1,7 °C93 %1.019,0 hPa2,9 km/h7,9 km/h281°0,0 mm
13:09-1,7 °C93 %1.019,0 hPa4,2 km/h8,5 km/h272°0,0 mm
13:04-1,7 °C93 %1.019,0 hPa3,5 km/h7,9 km/h273°0,0 mm
12:59-1,7 °C93 %1.019,0 hPa3,5 km/h7,9 km/h288°0,0 mm
12:54-1,7 °C93 %1.019,0 hPa4,0 km/h9,3 km/h296°0,0 mm
12:49-1,7 °C93 %1.019,0 hPa3,5 km/h8,9 km/h295°0,0 mm
12:44-1,7 °C93 %1.019,0 hPa2,8 km/h7,9 km/h272°0,0 mm
12:39-1,8 °C93 %1.019,0 hPa2,8 km/h9,3 km/h281°0,0 mm
12:34-1,8 °C93 %1.019,0 hPa1,8 km/h7,4 km/h283°0,0 mm
12:29-1,8 °C94 %1.019,0 hPa2,9 km/h6,8 km/h281°0,0 mm
12:24-1,8 °C94 %1.019,0 hPa3,3 km/h9,7 km/h293°0,0 mm
12:19-1,8 °C94 %1.019,0 hPa1,0 km/h5,6 km/h311°0,0 mm
12:14-1,8 °C94 %1.020,0 hPa1,9 km/h7,9 km/h319°0,0 mm
12:09-1,9 °C93 %1.020,0 hPa3,1 km/h6,8 km/h302°0,0 mm
12:04-1,9 °C93 %1.020,0 hPa2,9 km/h7,4 km/h291°0,0 mm
11:59-1,9 °C93 %1.020,0 hPa2,5 km/h5,3 km/h309°0,0 mm
11:54-2,0 °C93 %1.020,0 hPa3,2 km/h7,9 km/h274°0,0 mm
11:49-2,0 °C94 %1.020,0 hPa2,6 km/h5,6 km/h302°0,0 mm
11:44-2,0 °C94 %1.020,0 hPa1,9 km/h6,4 km/h283°0,0 mm
11:39-2,1 °C94 %1.020,0 hPa2,2 km/h6,4 km/h288°0,0 mm
11:34-2,1 °C94 %1.020,0 hPa3,8 km/h7,4 km/h303°0,0 mm
11:29-2,2 °C94 %1.020,0 hPa3,3 km/h15,0 km/h324°0,0 mm
11:24-2,2 °C94 %1.020,0 hPa4,4 km/h9,3 km/h297°0,0 mm
11:19-2,2 °C94 %1.020,0 hPa4,3 km/h8,9 km/h309°0,0 mm
11:14-2,2 °C95 %1.020,0 hPa4,9 km/h12,2 km/h281°0,0 mm
11:09-2,2 °C95 %1.020,0 hPa5,6 km/h9,7 km/h278°0,0 mm
11:04-2,1 °C95 %1.020,0 hPa4,7 km/h11,1 km/h280°0,0 mm
10:59-2,1 °C95 %1.020,0 hPa3,1 km/h7,4 km/h281°0,0 mm
10:54-2,1 °C94 %1.020,0 hPa3,6 km/h10,8 km/h294°0,0 mm
10:49-2,1 °C94 %1.020,0 hPa2,1 km/h6,4 km/h284°0,0 mm
10:44-2,1 °C94 %1.020,0 hPa2,9 km/h6,4 km/h300°0,0 mm
10:39-2,1 °C94 %1.020,0 hPa1,5 km/h3,9 km/h287°0,0 mm
10:34-2,1 °C94 %1.020,0 hPa1,8 km/h6,4 km/h293°0,0 mm
10:29-2,2 °C94 %1.020,0 hPa2,0 km/h7,4 km/h300°0,0 mm
10:24-2,2 °C94 %1.020,0 hPa2,5 km/h6,8 km/h294°0,0 mm
10:19-2,2 °C94 %1.020,0 hPa2,6 km/h6,4 km/h262°0,0 mm
10:14-2,2 °C94 %1.020,0 hPa1,3 km/h3,9 km/h291°0,0 mm
10:09-2,3 °C94 %1.020,0 hPa1,7 km/h3,2 km/h295°0,0 mm
10:04-2,3 °C94 %1.020,0 hPa2,1 km/h5,6 km/h298°0,0 mm
09:59-2,3 °C94 %1.020,0 hPa1,2 km/h3,5 km/h268°0,0 mm
09:54-2,3 °C95 %1.020,0 hPa1,1 km/h5,0 km/h295°0,0 mm
09:49-2,3 °C95 %1.020,0 hPa1,8 km/h4,7 km/h256°0,0 mm
09:44-2,3 °C94 %1.021,0 hPa2,3 km/h5,3 km/h324°0,0 mm
09:39-2,3 °C94 %1.021,0 hPa2,0 km/h3,9 km/h271°0,0 mm
09:34-2,4 °C94 %1.021,0 hPa1,9 km/h3,9 km/h248°0,0 mm
09:29-2,4 °C94 %1.020,0 hPa2,7 km/h3,9 km/h288°0,0 mm
09:24-2,4 °C94 %1.020,0 hPa2,0 km/h4,2 km/h273°0,0 mm
09:19-2,4 °C94 %1.020,0 hPa1,3 km/h3,9 km/h273°0,0 mm
09:14-2,4 °C94 %1.021,0 hPa1,7 km/h5,3 km/h313°0,0 mm
09:09-2,4 °C94 %1.021,0 hPa2,0 km/h3,9 km/h288°0,0 mm
09:04-2,4 °C93 %1.021,0 hPa2,6 km/h7,4 km/h304°0,0 mm
08:59-2,4 °C93 %1.021,0 hPa1,7 km/h5,3 km/h268°0,0 mm
08:54-2,4 °C93 %1.021,0 hPa2,1 km/h8,5 km/h270°0,0 mm
08:49-2,4 °C93 %1.021,0 hPa2,3 km/h6,8 km/h321°0,0 mm
08:44-2,4 °C92 %1.021,0 hPa2,5 km/h5,3 km/h285°0,0 mm
08:39-2,4 °C92 %1.021,0 hPa4,3 km/h9,3 km/h288°0,0 mm
08:34-2,4 °C92 %1.021,0 hPa3,2 km/h11,4 km/h276°0,0 mm
08:29-2,4 °C91 %1.021,0 hPa2,3 km/h5,3 km/h293°0,0 mm
08:24-2,4 °C91 %1.021,0 hPa2,4 km/h7,4 km/h282°0,0 mm
08:19-2,5 °C91 %1.021,0 hPa1,9 km/h5,6 km/h279°0,0 mm
08:14-2,5 °C91 %1.020,0 hPa4,0 km/h8,5 km/h289°0,0 mm
08:09-2,5 °C91 %1.020,0 hPa1,6 km/h3,5 km/h311°0,0 mm
08:04-2,5 °C91 %1.020,0 hPa2,2 km/h3,9 km/h276°0,0 mm
07:59-2,5 °C91 %1.020,0 hPa1,4 km/h5,3 km/h276°0,0 mm
07:54-2,5 °C91 %1.020,0 hPa2,3 km/h3,9 km/h292°0,0 mm
07:49-2,5 °C92 %1.020,0 hPa2,6 km/h5,3 km/h309°0,0 mm
07:44-2,6 °C92 %1.020,0 hPa2,7 km/h5,6 km/h299°0,0 mm
07:39-2,6 °C92 %1.020,0 hPa1,7 km/h3,9 km/h277°0,0 mm
07:34-2,6 °C92 %1.020,0 hPa2,0 km/h5,0 km/h292°0,0 mm
07:29-2,6 °C92 %1.020,0 hPa3,0 km/h9,3 km/h264°0,0 mm
07:24-2,6 °C92 %1.020,0 hPa1,4 km/h2,7 km/h292°0,0 mm
07:19-2,6 °C92 %1.020,0 hPa2,5 km/h6,4 km/h277°0,0 mm
07:14-2,6 °C92 %1.020,0 hPa2,3 km/h7,4 km/h248°0,0 mm
07:09-2,6 °C92 %1.020,0 hPa1,2 km/h3,2 km/h233°0,0 mm
07:04-2,6 °C92 %1.020,0 hPa1,1 km/h3,2 km/h280°0,0 mm
06:59-2,6 °C92 %1.020,0 hPa2,0 km/h6,4 km/h263°0,0 mm
06:54-2,6 °C92 %1.020,0 hPa2,1 km/h5,3 km/h270°0,0 mm
06:49-2,6 °C92 %1.020,0 hPa1,4 km/h3,2 km/h296°0,0 mm
06:44-2,6 °C92 %1.020,0 hPa1,4 km/h4,2 km/h288°0,0 mm
06:39-2,6 °C92 %1.020,0 hPa2,2 km/h5,3 km/h281°0,0 mm
06:34-2,6 °C92 %1.020,0 hPa2,3 km/h3,9 km/h288°0,0 mm
06:29-2,6 °C92 %1.020,0 hPa1,9 km/h7,9 km/h285°0,0 mm
06:24-2,6 °C92 %1.020,0 hPa2,7 km/h6,4 km/h290°0,0 mm
06:19-2,6 °C92 %1.020,0 hPa2,5 km/h5,0 km/h288°0,0 mm
06:14-2,6 °C92 %1.020,0 hPa0,9 km/h3,9 km/h260°0,0 mm
06:09-2,6 °C92 %1.020,0 hPa1,9 km/h4,7 km/h294°0,0 mm
06:04-2,6 °C92 %1.020,0 hPa2,1 km/h5,6 km/h283°0,0 mm
05:59-2,6 °C92 %1.020,0 hPa2,2 km/h3,9 km/h281°0,0 mm
05:54-2,6 °C92 %1.020,0 hPa1,8 km/h5,6 km/h263°0,0 mm
05:49-2,6 °C92 %1.020,0 hPa1,8 km/h3,5 km/h261°0,0 mm
05:44-2,6 °C92 %1.021,0 hPa1,9 km/h3,5 km/h282°0,0 mm
05:39-2,7 °C92 %1.021,0 hPa1,3 km/h2,7 km/h283°0,0 mm
05:34-2,7 °C92 %1.021,0 hPa1,0 km/h3,2 km/h239°0,0 mm
05:29-2,7 °C92 %1.020,0 hPa1,6 km/h3,2 km/h279°0,0 mm
05:24-2,7 °C92 %1.020,0 hPa1,2 km/h3,5 km/h248°0,0 mm
05:19-2,7 °C92 %1.020,0 hPa1,2 km/h3,5 km/h264°0,0 mm
05:14-2,7 °C92 %1.020,0 hPa2,0 km/h3,2 km/h267°0,0 mm
05:09-2,7 °C92 %1.020,0 hPa1,2 km/h3,9 km/h270°0,0 mm
05:04-2,7 °C92 %1.020,0 hPa2,5 km/h3,9 km/h262°0,0 mm
04:59-2,7 °C92 %1.021,0 hPa1,9 km/h5,3 km/h285°0,0 mm
04:54-2,7 °C92 %1.021,0 hPa2,6 km/h6,4 km/h284°0,0 mm
04:49-2,7 °C92 %1.021,0 hPa3,0 km/h6,4 km/h285°0,0 mm
04:44-2,8 °C92 %1.020,0 hPa2,7 km/h5,6 km/h257°0,0 mm
04:39-2,8 °C92 %1.020,0 hPa3,5 km/h8,5 km/h283°0,0 mm
04:34-2,9 °C92 %1.020,0 hPa2,3 km/h7,1 km/h284°0,0 mm
04:29-2,9 °C93 %1.021,0 hPa2,5 km/h7,9 km/h274°0,0 mm
04:24-2,9 °C93 %1.021,0 hPa1,3 km/h3,2 km/h285°0,0 mm
04:19-2,9 °C93 %1.021,0 hPa0,5 km/h2,4 km/h295°0,0 mm
04:14-2,9 °C93 %1.021,0 hPa1,4 km/h3,5 km/h287°0,0 mm
04:09-2,9 °C93 %1.021,0 hPa1,1 km/h3,5 km/h264°0,0 mm
04:04-2,9 °C93 %1.021,0 hPa2,7 km/h6,1 km/h249°0,0 mm
03:59-2,9 °C92 %1.021,0 hPa2,0 km/h4,2 km/h249°0,0 mm
03:54-2,9 °C92 %1.021,0 hPa1,7 km/h4,2 km/h270°0,0 mm
03:49-2,9 °C92 %1.021,0 hPa0,7 km/h2,4 km/h265°0,0 mm
03:44-2,9 °C92 %1.021,0 hPa0,5 km/h2,4 km/h300°0,0 mm
03:39-2,9 °C92 %1.021,0 hPa0,7 km/h2,7 km/h292°0,0 mm
03:34-2,9 °C92 %1.021,0 hPa1,1 km/h2,7 km/h298°0,0 mm
03:29-2,9 °C92 %1.021,0 hPa1,3 km/h3,5 km/h274°0,0 mm
03:24-2,9 °C92 %1.021,0 hPa1,2 km/h3,9 km/h261°0,0 mm
03:19-2,9 °C92 %1.021,0 hPa1,6 km/h5,0 km/h282°0,0 mm
03:14-3,0 °C92 %1.021,0 hPa1,7 km/h3,9 km/h291°0,0 mm
03:09-3,0 °C92 %1.021,0 hPa1,1 km/h2,7 km/h295°0,0 mm
03:04-3,0 °C92 %1.021,0 hPa2,2 km/h5,0 km/h276°0,0 mm
02:59-2,9 °C92 %1.021,0 hPa1,3 km/h2,7 km/h290°0,0 mm
02:54-2,9 °C92 %1.021,0 hPa1,2 km/h3,5 km/h289°0,0 mm
02:49-2,9 °C92 %1.021,0 hPa2,2 km/h6,4 km/h281°0,0 mm
02:44-3,0 °C92 %1.021,0 hPa1,2 km/h3,2 km/h276°0,0 mm
02:39-3,0 °C92 %1.021,0 hPa2,0 km/h5,3 km/h282°0,0 mm
02:34-3,0 °C92 %1.021,0 hPa1,6 km/h3,5 km/h285°0,0 mm
02:29-3,0 °C92 %1.021,0 hPa2,3 km/h5,3 km/h258°0,0 mm
02:24-3,0 °C92 %1.021,0 hPa1,9 km/h3,9 km/h278°0,0 mm
02:19-3,1 °C92 %1.021,0 hPa2,0 km/h3,5 km/h275°0,0 mm
02:14-3,1 °C92 %1.021,0 hPa2,2 km/h5,0 km/h262°0,0 mm
02:09-3,1 °C92 %1.021,0 hPa1,5 km/h3,5 km/h282°0,0 mm
02:04-3,1 °C92 %1.021,0 hPa1,2 km/h2,7 km/h277°0,0 mm
01:59-3,1 °C92 %1.021,0 hPa1,9 km/h7,4 km/h284°0,0 mm
01:54-3,1 °C92 %1.021,0 hPa1,4 km/h2,7 km/h285°0,0 mm
01:49-3,1 °C92 %1.021,0 hPa2,0 km/h4,2 km/h284°0,0 mm
01:44-3,1 °C92 %1.021,0 hPa2,5 km/h8,5 km/h319°0,0 mm
01:39-3,1 °C92 %1.021,0 hPa1,2 km/h2,7 km/h334°0,0 mm
01:34-3,1 °C92 %1.021,0 hPa1,7 km/h7,9 km/h308°0,0 mm
01:29-3,2 °C92 %1.021,0 hPa0,5 km/h2,7 km/h304°0,0 mm
01:24-3,2 °C92 %1.021,0 hPa1,4 km/h3,5 km/h313°0,0 mm
01:19-3,2 °C92 %1.021,0 hPa0,5 km/h3,5 km/h296°0,0 mm
01:14-3,3 °C92 %1.021,0 hPa1,3 km/h7,9 km/h277°0,0 mm
01:09-3,3 °C92 %1.021,0 hPa0,7 km/h2,7 km/h306°0,0 mm
01:04-3,3 °C92 %1.021,0 hPa0,7 km/h2,7 km/h271°0,0 mm
00:59-3,3 °C92 %1.021,0 hPa0,9 km/h3,5 km/h286°0,0 mm
00:54-3,4 °C92 %1.021,0 hPa1,3 km/h3,5 km/h281°0,0 mm
00:49-3,4 °C92 %1.021,0 hPa1,0 km/h8,5 km/h270°0,0 mm
00:44-3,4 °C92 %1.021,0 hPa1,2 km/h5,3 km/h268°0,0 mm
00:39-3,4 °C92 %1.021,0 hPa1,2 km/h3,9 km/h277°0,0 mm
00:34-3,4 °C92 %1.021,0 hPa2,1 km/h6,8 km/h290°0,0 mm
00:29-3,5 °C92 %1.021,0 hPa1,3 km/h3,5 km/h297°0,0 mm
00:24-3,5 °C91 %1.021,0 hPa1,4 km/h5,6 km/h278°0,0 mm
00:19-3,5 °C91 %1.021,0 hPa1,0 km/h2,7 km/h267°0,0 mm
00:14-3,5 °C91 %1.021,0 hPa2,1 km/h5,6 km/h284°0,0 mm
00:09-3,6 °C91 %1.021,0 hPa1,2 km/h3,5 km/h292°0,0 mm
00:04-3,6 °C91 %1.021,0 hPa1,3 km/h3,2 km/h271°0,0 mm